createdAt,value
2023-04-01T00:01:18.034Z,48.50
2023-04-01T00:03:46.766Z,48.31
2023-04-01T00:06:17.814Z,48.39
2023-04-01T00:08:45.946Z,48.34
2023-04-01T00:11:15.125Z,48.61
2023-04-01T00:13:43.389Z,48.54
2023-04-01T00:16:21.062Z,48.30
2023-04-01T00:18:51.717Z,48.23
2023-04-01T00:21:20.484Z,48.22
2023-04-01T00:23:48.502Z,48.34
2023-04-01T00:26:20.150Z,48.29
2023-04-01T00:28:48.560Z,48.27
2023-04-01T00:31:19.348Z,48.35
2023-04-01T00:33:47.886Z,48.29
2023-04-01T00:36:19.223Z,48.41
2023-04-01T00:38:47.985Z,48.27
2023-04-01T00:41:18.204Z,48.43
2023-04-01T00:43:48.994Z,48.62
2023-04-01T00:46:16.811Z,48.24
2023-04-01T00:48:52.357Z,48.54
2023-04-01T00:51:25.195Z,48.24
2023-04-01T00:53:56.963Z,48.21
2023-04-01T00:56:34.092Z,48.48
2023-04-01T00:59:06.023Z,48.37
2023-04-01T01:01:36.129Z,48.44
2023-04-01T01:04:06.889Z,48.26
2023-04-01T01:06:40.821Z,48.51
2023-04-01T01:09:33.111Z,48.26
2023-04-01T01:12:15.217Z,48.20
2023-04-01T01:15:10.988Z,48.32
2023-04-01T01:17:56.935Z,48.61
2023-04-01T01:20:56.856Z,48.40
2023-04-01T01:23:50.723Z,48.55
2023-04-01T01:26:34.807Z,48.57
2023-04-01T01:29:25.484Z,48.40
2023-04-01T01:32:02.341Z,48.52
2023-04-01T01:34:58.130Z,48.52
2023-04-01T01:37:28.754Z,48.62
2023-04-01T01:40:03.211Z,48.79
2023-04-01T01:42:36.155Z,48.46
2023-04-01T01:45:07.707Z,48.31
2023-04-01T01:47:37.099Z,48.61
2023-04-01T01:50:07.515Z,48.60
2023-04-01T01:52:35.529Z,48.85
2023-04-01T01:55:24.694Z,48.79
2023-04-01T01:57:52.739Z,48.96
2023-04-01T02:00:22.312Z,48.53
2023-04-01T02:02:52.007Z,48.38
2023-04-01T02:05:24.466Z,48.84
2023-04-01T02:08:02.898Z,48.61
2023-04-01T02:10:35.624Z,48.93
2023-04-01T02:13:12.760Z,48.66
2023-04-01T02:15:47.092Z,48.54
2023-04-01T02:18:17.520Z,48.79
2023-04-01T02:20:46.065Z,48.50
2023-04-01T02:23:15.135Z,48.85
2023-04-01T02:25:44.979Z,48.82
2023-04-01T02:28:17.787Z,48.83
2023-04-01T02:30:48.179Z,48.64
2023-04-01T02:33:16.677Z,48.81
2023-04-01T02:35:44.769Z,48.81
2023-04-01T02:38:12.767Z,48.90
2023-04-01T02:40:50.548Z,48.87
2023-04-01T02:43:20.388Z,48.63
2023-04-01T02:45:48.313Z,48.43
2023-04-01T02:48:16.042Z,48.27
2023-04-01T02:50:44.757Z,48.33
2023-04-01T02:53:13.165Z,48.65
2023-04-01T02:55:41.190Z,48.32
2023-04-01T02:58:09.059Z,48.22
2023-04-01T03:00:38.152Z,48.43
2023-04-01T03:03:06.160Z,48.16
2023-04-01T03:05:34.325Z,48.26
2023-04-01T03:08:03.516Z,48.35
2023-04-01T03:10:33.268Z,48.71
2023-04-01T03:13:02.160Z,48.59
2023-04-01T03:15:30.330Z,48.92
2023-04-01T03:17:59.438Z,48.73
2023-04-01T03:20:27.629Z,49.01
2023-04-01T03:22:56.873Z,48.66
2023-04-01T03:25:24.931Z,48.99
2023-04-01T03:27:52.884Z,48.70
2023-04-01T03:30:21.235Z,48.97
2023-04-01T03:32:51.874Z,49.11
2023-04-01T03:35:19.873Z,49.26
2023-04-01T03:37:47.868Z,49.13
2023-04-01T03:40:17.639Z,49.08
2023-04-01T03:42:45.810Z,49.17
2023-04-01T03:45:15.747Z,49.43
2023-04-01T03:47:44.799Z,49.10
2023-04-01T03:50:12.861Z,49.38
2023-04-01T03:52:40.809Z,49.50
2023-04-01T03:55:08.950Z,49.65
2023-04-01T03:57:38.078Z,49.51
2023-04-01T04:00:16.674Z,49.46
2023-04-01T04:02:46.737Z,49.40
2023-04-01T04:05:20.138Z,49.47
2023-04-01T04:07:48.624Z,49.72
2023-04-01T04:10:16.351Z,49.72
2023-04-01T04:12:44.438Z,49.74
2023-04-01T04:15:12.871Z,49.73
2023-04-01T04:17:55.195Z,49.73
2023-04-01T04:20:24.627Z,50.07
2023-04-01T04:22:52.320Z,50.08
2023-04-01T04:25:21.654Z,50.23
2023-04-01T04:27:50.635Z,50.18
2023-04-01T04:30:19.938Z,50.09
2023-04-01T04:32:48.736Z,50.03
2023-04-01T04:35:16.675Z,49.74
2023-04-01T04:37:45.452Z,49.98
2023-04-01T04:40:13.585Z,49.98
2023-04-01T04:42:42.745Z,49.78
2023-04-01T04:45:13.964Z,49.93
2023-04-01T04:47:48.228Z,50.23
2023-04-01T04:50:16.337Z,49.88
2023-04-01T04:52:44.271Z,50.18
2023-04-01T04:55:12.280Z,50.12
2023-04-01T04:57:41.335Z,50.40
2023-04-01T05:00:11.228Z,50.38
2023-04-01T05:02:54.150Z,50.38
2023-04-01T05:05:22.133Z,50.66
2023-04-01T05:07:49.816Z,50.67
2023-04-01T05:10:20.530Z,50.48
2023-04-01T05:12:48.212Z,50.92
2023-04-01T05:15:19.690Z,50.43
2023-04-01T05:17:47.716Z,50.82
2023-04-01T05:20:17.024Z,50.89
2023-04-01T05:22:45.505Z,51.18
2023-04-01T05:25:13.557Z,50.89
2023-04-01T05:27:41.600Z,50.87
2023-04-01T05:30:09.822Z,50.77
2023-04-01T05:32:47.606Z,50.78
2023-04-01T05:35:18.494Z,50.69
2023-04-01T05:37:47.557Z,50.83
2023-04-01T05:40:15.755Z,51.03
2023-04-01T05:42:43.832Z,51.08
2023-04-01T05:45:12.568Z,51.08
2023-04-01T05:48:03.731Z,51.20
2023-04-01T05:50:37.796Z,50.90
2023-04-01T05:53:07.219Z,50.60
2023-04-01T05:55:37.243Z,50.58
2023-04-01T05:58:07.056Z,50.24
2023-04-01T06:00:36.593Z,49.03
2023-04-01T06:03:05.009Z,48.54
2023-04-01T06:05:44.396Z,47.96
2023-04-01T06:08:19.050Z,46.99
2023-04-01T06:11:14.757Z,46.06
2023-04-01T06:14:00.496Z,44.69
2023-04-01T06:17:10.306Z,43.02
2023-04-01T06:20:02.839Z,42.21
2023-04-01T06:23:01.960Z,41.79
2023-04-01T06:25:39.633Z,42.14
2023-04-01T06:28:31.749Z,41.17
2023-04-01T06:31:24.073Z,40.81
2023-04-01T06:34:23.677Z,39.84
2023-04-01T06:37:06.793Z,39.98
2023-04-01T06:39:34.523Z,40.41
2023-04-01T06:42:02.411Z,39.98
2023-04-01T06:44:41.472Z,39.87
2023-04-01T06:47:45.461Z,39.52
2023-04-01T06:51:15.659Z,38.73
2023-04-01T06:54:12.105Z,39.09
2023-04-01T06:57:07.851Z,39.06
2023-04-01T06:59:38.409Z,38.40
2023-04-01T07:02:27.510Z,38.06
2023-04-01T07:04:59.170Z,38.97
2023-04-01T07:07:49.554Z,38.38
2023-04-01T07:11:04.348Z,37.55
2023-04-01T07:13:56.354Z,38.14
2023-04-01T07:16:35.947Z,38.25
2023-04-01T07:19:03.731Z,38.15
2023-04-01T07:21:50.739Z,38.05
2023-04-01T07:24:31.355Z,38.77
2023-04-01T07:27:13.569Z,39.09
2023-04-01T07:29:43.458Z,38.99
2023-04-01T07:32:44.950Z,38.38
2023-04-01T07:35:29.052Z,38.24
2023-04-01T07:38:06.203Z,37.77
2023-04-01T07:40:59.161Z,38.07
2023-04-01T07:43:50.832Z,37.41
2023-04-01T07:47:00.998Z,37.59
2023-04-01T07:49:46.957Z,38.18
2023-04-01T07:52:27.264Z,37.28
2023-04-01T07:55:16.696Z,37.32
2023-04-01T07:58:09.537Z,37.26
2023-04-01T08:00:55.960Z,36.57
2023-04-01T08:03:58.986Z,36.53
2023-04-01T08:06:36.266Z,37.44
2023-04-01T08:09:11.241Z,37.94
2023-04-01T08:12:14.906Z,37.21
2023-04-01T08:15:29.102Z,37.19
2023-04-01T08:18:41.915Z,38.05
2023-04-01T08:21:52.222Z,37.30
2023-04-01T08:24:46.469Z,37.50
2023-04-01T08:27:36.362Z,38.14
2023-04-01T08:30:09.379Z,38.05
2023-04-01T08:32:44.930Z,38.67
2023-04-01T08:35:33.814Z,38.20
2023-04-01T08:38:18.270Z,38.95
2023-04-01T08:41:16.471Z,38.67
2023-04-01T08:44:35.673Z,38.60
2023-04-01T08:47:21.620Z,38.56
2023-04-01T08:50:08.665Z,37.39
2023-04-01T08:53:12.876Z,37.71
2023-04-01T08:55:48.805Z,39.12
2023-04-01T08:58:56.046Z,37.15
2023-04-01T09:01:48.578Z,37.20
2023-04-01T09:05:00.052Z,37.28
2023-04-01T09:07:55.539Z,37.76
2023-04-01T09:10:34.693Z,39.15
2023-04-01T09:13:58.577Z,38.50
2023-04-01T09:16:45.352Z,37.54
2023-04-01T09:19:37.497Z,37.68
2023-04-01T09:22:28.696Z,37.07
2023-04-01T09:25:24.558Z,36.41
2023-04-01T09:28:18.876Z,36.70
2023-04-01T09:30:49.761Z,36.31
2023-04-01T09:33:35.992Z,36.57
2023-04-01T09:36:22.817Z,36.52
2023-04-01T09:38:59.202Z,35.90
2023-04-01T09:41:33.589Z,35.87
2023-04-01T09:44:24.430Z,36.19
2023-04-01T09:47:44.168Z,36.11
2023-04-01T09:50:34.640Z,35.84
2023-04-01T09:53:44.526Z,35.80
2023-04-01T09:56:35.915Z,35.95
2023-04-01T09:59:29.843Z,36.06
2023-04-01T10:02:45.930Z,36.06
2023-04-01T10:05:48.097Z,35.81
2023-04-01T10:08:40.971Z,35.25
2023-04-01T10:11:45.450Z,35.30
2023-04-01T10:14:41.202Z,34.76
2023-04-01T10:17:27.933Z,35.61
2023-04-01T10:20:03.637Z,36.32
2023-04-01T10:23:11.840Z,36.34
2023-04-01T10:26:11.045Z,37.43
2023-04-01T10:28:57.364Z,37.95
2023-04-01T10:32:19.358Z,37.78
2023-04-01T10:35:06.728Z,37.36
2023-04-01T10:37:56.227Z,36.70
2023-04-01T10:41:20.716Z,36.60
2023-04-01T10:44:53.077Z,35.80
2023-04-01T10:47:49.909Z,36.35
2023-04-01T10:50:33.377Z,35.69
2023-04-01T10:53:26.974Z,36.63
2023-04-01T10:56:58.727Z,36.39
2023-04-01T11:00:09.480Z,36.80
2023-04-01T11:03:01.900Z,37.34
2023-04-01T11:06:27.524Z,37.46
2023-04-01T11:09:17.682Z,37.39
2023-04-01T11:12:03.753Z,37.82
2023-04-01T11:15:01.867Z,37.20
2023-04-01T11:17:56.460Z,37.45
2023-04-01T11:20:53.916Z,37.01
2023-04-01T11:23:33.980Z,38.21
2023-04-01T11:26:27.534Z,36.74
2023-04-01T11:29:26.975Z,36.32
2023-04-01T11:32:15.542Z,35.84
2023-04-01T11:35:02.258Z,36.88
2023-04-01T11:37:34.228Z,37.06
2023-04-01T11:40:43.746Z,38.57
2023-04-01T11:44:00.529Z,38.29
2023-04-01T11:47:15.728Z,38.53
2023-04-01T11:49:51.574Z,38.05
2023-04-01T11:52:46.573Z,37.01
2023-04-01T11:55:42.060Z,36.43
2023-04-01T11:58:50.650Z,36.85
2023-04-01T12:01:25.525Z,36.63
2023-04-01T12:04:28.184Z,34.69
2023-04-01T12:07:14.587Z,34.57
2023-04-01T12:09:45.466Z,34.70
2023-04-01T12:12:54.220Z,34.36
2023-04-01T12:15:32.581Z,34.52
2023-04-01T12:18:19.195Z,34.17
2023-04-01T12:21:05.416Z,34.15
2023-04-01T12:23:40.427Z,33.96
2023-04-01T12:26:44.836Z,33.20
2023-04-01T12:29:31.372Z,33.32
2023-04-01T12:32:44.020Z,32.50
2023-04-01T12:35:26.258Z,33.03
2023-04-01T12:38:07.815Z,32.93
2023-04-01T12:40:42.811Z,33.59
2023-04-01T12:43:33.993Z,33.65
2023-04-01T12:46:27.612Z,33.37
2023-04-01T12:49:16.862Z,33.99
2023-04-01T12:52:04.965Z,34.60
2023-04-01T12:54:51.008Z,35.34
2023-04-01T12:57:21.870Z,35.43
2023-04-01T12:59:53.567Z,35.67
2023-04-01T13:02:33.078Z,35.16
2023-04-01T13:05:22.741Z,34.59
2023-04-01T13:08:25.709Z,33.20
2023-04-01T13:11:27.191Z,32.90
2023-04-01T13:14:30.788Z,32.13
2023-04-01T13:17:20.166Z,32.26
2023-04-01T13:20:05.710Z,33.39
2023-04-01T13:25:29.105Z,32.34
2023-04-01T13:28:13.924Z,32.14
2023-04-01T13:30:56.431Z,31.73
2023-04-01T13:33:33.632Z,32.15
2023-04-01T13:36:29.406Z,31.82
2023-04-01T13:39:26.504Z,32.29
2023-04-01T13:42:29.617Z,30.28
2023-04-01T13:45:22.541Z,30.12
2023-04-01T13:48:28.042Z,30.33
2023-04-01T13:51:07.753Z,31.13
2023-04-01T13:53:50.031Z,31.19
2023-04-01T13:56:49.477Z,31.48
2023-04-01T13:59:38.616Z,31.64
2023-04-01T14:02:40.664Z,31.90
2023-04-01T14:05:43.049Z,32.73
2023-04-01T14:08:52.974Z,29.30
2023-04-01T14:11:53.788Z,28.65
2023-04-01T14:14:43.510Z,30.70
2023-04-01T14:17:39.498Z,32.71
2023-04-01T14:20:29.168Z,32.25
2023-04-01T14:23:26.685Z,33.07
2023-04-01T14:26:00.710Z,33.29
2023-04-01T14:28:51.204Z,33.15
2023-04-01T14:31:29.977Z,32.81
2023-04-01T14:34:26.096Z,35.07
2023-04-01T14:36:56.781Z,41.49
2023-04-01T14:39:46.823Z,39.39
2023-04-01T14:42:30.020Z,39.20
2023-04-01T14:45:22.948Z,37.50
2023-04-01T14:48:44.528Z,36.82
2023-04-01T14:51:22.040Z,37.02
2023-04-01T14:54:13.474Z,37.23
2023-04-01T14:56:44.377Z,37.42
2023-04-01T14:59:26.464Z,37.33
2023-04-01T15:02:15.597Z,38.01
2023-04-01T15:05:06.909Z,38.28
2023-04-01T15:08:01.318Z,38.71
2023-04-01T15:10:46.185Z,39.82
2023-04-01T15:13:15.684Z,39.98
2023-04-01T15:16:08.175Z,40.18
2023-04-01T15:18:54.830Z,40.63
2023-04-01T15:21:45.825Z,40.77
2023-04-01T15:24:37.486Z,40.79
2023-04-01T15:27:22.838Z,40.85
2023-04-01T15:30:21.081Z,41.04
2023-04-01T15:33:18.099Z,41.09
2023-04-01T15:35:51.652Z,40.51
2023-04-01T15:38:29.415Z,40.85
2023-04-01T15:41:18.705Z,41.38
2023-04-01T15:43:55.630Z,40.98
2023-04-01T15:46:42.027Z,40.76
2023-04-01T15:49:44.880Z,40.40
2023-04-01T15:52:24.541Z,39.89
2023-04-01T15:55:26.318Z,39.71
2023-04-01T15:58:32.759Z,39.14
2023-04-01T16:01:36.500Z,39.12
2023-04-01T16:04:22.745Z,39.50
2023-04-01T16:07:10.677Z,39.94
2023-04-01T16:10:08.154Z,38.03
2023-04-01T16:13:05.907Z,38.62
2023-04-01T16:15:42.042Z,38.61
2023-04-01T16:18:44.264Z,36.93
2023-04-01T16:21:35.026Z,37.19
2023-04-01T16:24:12.123Z,37.23
2023-04-01T16:26:56.088Z,37.07
2023-04-01T16:29:48.202Z,35.17
2023-04-01T16:32:50.341Z,35.58
2023-04-01T16:35:36.411Z,36.08
2023-04-01T16:38:14.677Z,35.96
2023-04-01T16:41:02.809Z,35.72
2023-04-01T16:43:36.815Z,35.45
2023-04-01T16:46:22.413Z,34.79
2023-04-01T16:49:18.527Z,32.97
2023-04-01T16:51:52.747Z,33.57
2023-04-01T16:54:54.873Z,33.96
2023-04-01T16:57:33.481Z,34.52
2023-04-01T17:00:32.309Z,33.40
2023-04-01T17:03:13.286Z,33.57
2023-04-01T17:06:02.886Z,33.92
2023-04-01T17:08:59.978Z,32.86
2023-04-01T17:11:32.021Z,33.37
2023-04-01T17:14:30.395Z,32.28
2023-04-01T17:17:25.918Z,32.63
2023-04-01T17:20:34.523Z,30.72
2023-04-01T17:23:15.939Z,32.52
2023-04-01T17:26:08.353Z,31.94
2023-04-01T17:28:51.880Z,31.04
2023-04-01T17:31:25.781Z,31.78
2023-04-01T17:34:32.836Z,30.77
2023-04-01T17:37:30.225Z,31.01
2023-04-01T17:40:34.015Z,31.52
2023-04-01T17:43:26.811Z,31.65
2023-04-01T17:45:56.962Z,31.34
2023-04-01T17:48:46.165Z,30.14
2023-04-01T17:51:21.758Z,30.95
2023-04-01T17:53:58.195Z,30.71
2023-04-01T17:56:41.176Z,31.58
2023-04-01T17:59:09.120Z,30.69
2023-04-01T18:01:53.177Z,31.49
2023-04-01T18:04:38.394Z,31.09
2023-04-01T18:07:06.133Z,30.05
2023-04-01T18:10:05.128Z,29.17
2023-04-01T18:13:01.493Z,28.92
2023-04-01T18:16:04.046Z,28.78
2023-04-01T18:19:02.932Z,28.69
2023-04-01T18:21:59.893Z,29.87
2023-04-01T18:24:43.013Z,29.70
2023-04-01T18:27:10.747Z,29.14
2023-04-01T18:29:56.411Z,27.92
2023-04-01T18:32:38.636Z,28.74
2023-04-01T18:35:44.080Z,28.36
2023-04-01T18:38:20.149Z,28.46
2023-04-01T18:41:00.045Z,30.08
2023-04-01T18:43:57.939Z,32.68
2023-04-01T18:47:04.717Z,35.74
2023-04-01T18:49:43.333Z,37.61
2023-04-01T18:52:21.287Z,39.24
2023-04-01T18:55:04.243Z,39.85
2023-04-01T18:57:55.916Z,40.02
2023-04-01T19:01:08.736Z,40.59
2023-04-01T19:04:25.388Z,41.41
2023-04-01T19:06:59.467Z,41.59
2023-04-01T19:09:53.405Z,41.24
2023-04-01T19:12:41.187Z,41.59
2023-04-01T19:15:25.936Z,41.64
2023-04-01T19:18:12.599Z,41.71
2023-04-01T19:20:58.442Z,41.84
2023-04-01T19:23:45.151Z,41.56
2023-04-01T19:26:49.224Z,41.68
2023-04-01T19:29:44.245Z,41.18
2023-04-01T19:32:26.902Z,40.73
2023-04-01T19:35:01.644Z,40.70
2023-04-01T19:37:45.857Z,40.61
2023-04-01T19:40:50.132Z,40.53
2023-04-01T19:43:20.783Z,40.71
2023-04-01T19:46:13.174Z,41.02
2023-04-01T19:48:54.315Z,41.32
2023-04-01T19:51:34.434Z,41.02
2023-04-01T19:54:34.937Z,41.45
2023-04-01T19:57:37.480Z,41.35
2023-04-01T20:00:08.578Z,41.72
2023-04-01T20:03:31.780Z,42.00
2023-04-01T20:06:06.976Z,42.77
2023-04-01T20:08:41.551Z,42.38
2023-04-01T20:11:31.960Z,43.06
2023-04-01T20:14:24.563Z,42.55
2023-04-01T20:17:00.119Z,42.76
2023-04-01T20:19:39.927Z,42.88
2023-04-01T20:22:33.842Z,42.80
2023-04-01T20:25:14.527Z,42.74
2023-04-01T20:27:56.098Z,42.53
2023-04-01T20:30:32.077Z,42.32
2023-04-01T20:33:40.726Z,42.84
2023-04-01T20:36:22.132Z,43.35
2023-04-01T20:39:28.282Z,43.76
2023-04-01T20:42:13.917Z,43.79
2023-04-01T20:45:19.972Z,42.70
2023-04-01T20:48:15.089Z,43.17
2023-04-01T20:50:53.366Z,43.38
2023-04-01T20:53:33.457Z,43.40
2023-04-01T20:56:30.196Z,44.29
2023-04-01T20:59:11.039Z,45.29
2023-04-01T21:01:57.893Z,45.21
2023-04-01T21:04:38.713Z,45.50
2023-04-01T21:07:19.214Z,45.49
2023-04-01T21:09:59.103Z,45.59
2023-04-01T21:12:41.071Z,45.08
2023-04-01T21:15:36.034Z,44.92
2023-04-01T21:18:12.916Z,44.49
2023-04-01T21:21:38.787Z,44.81
2023-04-01T21:24:38.496Z,44.84
2023-04-01T21:27:13.032Z,44.83
2023-04-01T21:30:13.384Z,44.59
2023-04-01T21:33:05.919Z,44.49
2023-04-01T21:35:55.338Z,44.04
2023-04-01T21:38:51.995Z,44.34
2023-04-01T21:41:42.856Z,44.65
2023-04-01T21:44:10.679Z,44.53
2023-04-01T21:47:09.683Z,44.04
2023-04-01T21:49:50.148Z,44.38
2023-04-01T21:52:44.307Z,44.30
2023-04-01T21:55:24.492Z,44.13
2023-04-01T21:58:30.804Z,43.98
2023-04-01T22:01:22.180Z,44.14
2023-04-01T22:04:01.894Z,44.32
2023-04-01T22:06:42.266Z,44.11
2023-04-01T22:09:22.238Z,44.18
2023-04-01T22:12:19.443Z,44.01
2023-04-01T22:14:59.589Z,44.37
2023-04-01T22:17:50.874Z,44.09
2023-04-01T22:20:46.318Z,44.11
2023-04-01T22:23:45.152Z,44.22
2023-04-01T22:26:32.871Z,44.02
2023-04-01T22:29:21.462Z,44.04
2023-04-01T22:32:01.471Z,43.65
2023-04-01T22:34:47.257Z,43.58
2023-04-01T22:37:56.708Z,43.50
2023-04-01T22:40:40.006Z,44.07
2023-04-01T22:43:14.936Z,43.79
2023-04-01T22:46:07.342Z,43.53
2023-04-01T22:49:06.336Z,42.94
2023-04-01T22:52:05.101Z,43.10
2023-04-01T22:54:56.956Z,43.11
2023-04-01T22:57:32.442Z,42.91
2023-04-01T23:00:11.046Z,42.84
2023-04-01T23:02:43.283Z,42.54
2023-04-01T23:05:15.069Z,42.70
2023-04-01T23:07:48.053Z,42.94
2023-04-01T23:10:41.946Z,42.87
2023-04-01T23:13:23.727Z,43.39
2023-04-01T23:15:54.162Z,43.40
2023-04-01T23:18:38.637Z,43.67
2023-04-01T23:21:20.819Z,43.43
2023-04-01T23:24:23.642Z,43.83
2023-04-01T23:27:00.999Z,43.74
2023-04-01T23:29:29.838Z,43.74
2023-04-01T23:32:05.104Z,43.72
2023-04-01T23:34:37.143Z,43.74
2023-04-01T23:37:14.656Z,43.79
2023-04-01T23:39:45.802Z,43.72
2023-04-01T23:42:33.583Z,43.97
2023-04-01T23:45:21.943Z,43.92
2023-04-01T23:47:51.673Z,43.99
2023-04-01T23:50:26.857Z,44.38
2023-04-01T23:53:01.262Z,44.23
2023-04-01T23:55:33.529Z,44.26
2023-04-01T23:58:16.417Z,44.07
